createdAt,value
2022-11-10T06:32:51.045Z,7.70
2022-11-10T06:35:18.590Z,7.40
2022-11-10T06:37:45.879Z,7.60
2022-11-10T06:40:14.236Z,7.70
2022-11-10T06:42:44.189Z,7.80
2022-11-10T06:45:11.489Z,7.80
2022-11-10T06:47:38.993Z,7.90
2022-11-10T06:50:06.745Z,7.90
2022-11-10T06:52:34.058Z,7.90
2022-11-10T06:55:02.656Z,7.90
2022-11-10T06:57:30.301Z,8.00
2022-11-10T06:59:58.235Z,8.10
2022-11-10T07:02:25.814Z,9.20
2022-11-10T07:04:55.148Z,8.40
2022-11-10T07:07:46.625Z,8.20
2022-11-10T07:10:41.086Z,8.10
2022-11-10T07:13:10.176Z,8.20
2022-11-10T07:15:37.818Z,8.20
2022-11-10T07:18:05.572Z,8.50
2022-11-10T07:20:33.215Z,8.30
2022-11-10T07:23:02.664Z,9.30
2022-11-10T07:25:34.057Z,8.50
2022-11-10T07:28:04.686Z,8.60
2022-11-10T07:30:34.281Z,8.60
2022-11-10T07:33:04.464Z,8.60
2022-11-10T07:35:33.184Z,8.50
2022-11-10T07:38:05.877Z,8.40
2022-11-10T07:40:34.187Z,8.40
2022-11-10T07:43:02.038Z,9.00
2022-11-10T07:45:29.835Z,8.50
2022-11-10T07:47:59.715Z,8.70
2022-11-10T07:50:27.490Z,8.70
2022-11-10T07:53:07.085Z,8.80
2022-11-10T07:55:36.728Z,9.90
2022-11-10T07:58:06.132Z,9.00
2022-11-10T08:00:34.121Z,9.00
2022-11-10T08:03:20.436Z,9.20
2022-11-10T08:05:48.188Z,9.40
2022-11-10T08:08:15.646Z,9.70
2022-11-10T08:10:43.513Z,10.10
2022-11-10T08:13:13.139Z,10.50
2022-11-10T08:15:41.292Z,10.60
2022-11-10T08:18:16.313Z,11.20
2022-11-10T08:20:44.268Z,11.50
2022-11-10T08:23:12.248Z,11.10
2022-11-10T08:25:40.341Z,11.40
2022-11-10T08:28:10.783Z,11.70
2022-11-10T08:30:40.710Z,12.40
2022-11-10T08:33:10.344Z,12.50
2022-11-10T08:35:44.340Z,13.00
2022-11-10T08:38:21.424Z,12.40
2022-11-10T08:40:49.666Z,13.90
2022-11-10T08:43:19.113Z,15.20
2022-11-10T08:45:46.966Z,15.10
2022-11-10T08:48:17.194Z,16.30
2022-11-10T08:50:52.197Z,16.60
2022-11-10T08:53:24.503Z,17.50
2022-11-10T09:02:42.867Z,18.30
2022-11-10T09:05:29.218Z,18.60
2022-11-10T09:07:57.249Z,18.00
2022-11-10T09:10:26.047Z,18.90
2022-11-10T09:12:54.468Z,18.40
2022-11-10T09:15:36.694Z,19.80
2022-11-10T09:18:07.128Z,19.60
2022-11-10T09:20:36.944Z,18.30
2022-11-10T09:23:11.665Z,18.50
2022-11-10T09:25:43.130Z,20.20
2022-11-10T09:28:19.372Z,18.50
2022-11-10T09:30:52.169Z,17.90
2022-11-10T09:33:23.095Z,17.40
2022-11-10T09:35:51.431Z,18.30
2022-11-10T09:38:22.397Z,18.50
2022-11-10T09:41:14.069Z,18.90
2022-11-10T09:47:18.975Z,18.50
2022-11-10T09:50:01.315Z,18.60
2022-11-10T09:52:34.367Z,18.30
2022-11-10T09:55:22.207Z,18.20
2022-11-10T09:58:02.162Z,18.70
2022-11-10T10:00:35.767Z,18.40
2022-11-10T10:03:06.638Z,18.40
2022-11-10T10:06:02.934Z,19.80
2022-11-10T10:11:53.518Z,17.60
2022-11-10T10:14:56.829Z,19.40
2022-11-10T10:17:28.519Z,19.30
2022-11-10T10:20:05.674Z,19.40
2022-11-10T10:23:12.983Z,20.00
2022-11-10T10:25:47.981Z,20.20
2022-11-10T10:28:27.944Z,19.40
2022-11-10T10:31:07.275Z,19.20
2022-11-10T10:33:36.072Z,19.70
2022-11-10T10:36:40.341Z,19.40
2022-11-10T10:39:16.011Z,19.80
2022-11-10T10:41:46.312Z,20.60
2022-11-10T10:44:17.609Z,19.30
2022-11-10T10:46:59.023Z,18.50
2022-11-10T10:49:31.216Z,17.80
2022-11-10T10:52:13.362Z,18.10
2022-11-10T10:54:41.684Z,18.00
2022-11-10T10:57:29.448Z,17.70
2022-11-10T11:00:20.378Z,17.40
2022-11-10T11:03:13.150Z,17.20
2022-11-10T11:05:40.628Z,17.50
2022-11-10T11:08:19.922Z,17.70
2022-11-10T11:10:50.930Z,17.10
2022-11-10T11:13:26.126Z,18.30
2022-11-10T11:16:01.205Z,16.90
2022-11-10T11:18:33.671Z,16.90
2022-11-10T11:24:55.435Z,17.00
2022-11-10T11:27:53.457Z,18.00
2022-11-10T11:30:24.395Z,16.90
2022-11-10T11:33:16.291Z,16.10
2022-11-10T11:36:14.312Z,16.00
2022-11-10T11:39:00.971Z,16.10
2022-11-10T11:41:54.641Z,16.00
2022-11-10T11:44:38.434Z,15.70
2022-11-10T11:47:45.872Z,15.40
2022-11-10T11:50:36.907Z,15.00
2022-11-10T11:56:13.495Z,14.90
2022-11-10T11:58:51.202Z,14.80
2022-11-10T12:01:48.227Z,14.60
2022-11-10T12:04:45.849Z,14.40
2022-11-10T12:07:43.072Z,14.40
2022-11-10T12:10:42.971Z,14.40
2022-11-10T12:13:33.857Z,14.50
2022-11-10T12:16:25.071Z,14.50
2022-11-10T12:19:20.571Z,14.40
2022-11-10T12:25:06.113Z,14.50
2022-11-10T12:27:38.016Z,14.50
2022-11-10T12:30:11.272Z,14.50
2022-11-10T12:35:24.670Z,14.50
2022-11-10T12:38:10.065Z,14.50
2022-11-10T12:40:42.651Z,14.60
2022-11-10T12:43:34.076Z,14.50
2022-11-10T12:46:15.160Z,14.50
2022-11-10T12:49:12.686Z,14.40
2022-11-10T12:51:53.785Z,14.30
2022-11-10T12:54:29.329Z,14.30
2022-11-10T12:57:04.861Z,14.30
2022-11-10T12:59:37.837Z,14.30
2022-11-10T13:02:07.270Z,14.30
2022-11-10T13:04:35.043Z,14.40
2022-11-10T13:07:08.905Z,14.30
2022-11-10T13:09:42.660Z,14.30
2022-11-10T13:14:48.823Z,14.40
2022-11-10T13:20:31.475Z,14.40
2022-11-10T13:22:59.103Z,14.40
2022-11-10T13:25:42.753Z,14.40
2022-11-10T13:28:10.640Z,14.30
2022-11-10T13:30:46.160Z,14.30
2022-11-10T13:33:36.011Z,14.30
2022-11-10T13:36:04.265Z,14.30
2022-11-10T13:43:56.453Z,14.40
2022-11-10T13:46:56.203Z,14.20
2022-11-10T13:49:45.247Z,14.20
2022-11-10T13:52:19.869Z,14.20
2022-11-10T13:55:26.997Z,14.20
2022-11-10T13:58:18.782Z,14.30
2022-11-10T14:00:50.755Z,14.20
2022-11-10T14:06:30.591Z,14.20
2022-11-10T14:09:05.953Z,14.20
2022-11-10T14:11:49.535Z,14.10
2022-11-10T14:14:27.058Z,14.10
2022-11-10T14:16:54.972Z,13.80
2022-11-10T14:22:27.726Z,13.70
2022-11-10T14:25:04.234Z,13.60
2022-11-10T14:27:35.148Z,13.50
2022-11-10T14:30:06.522Z,13.40
2022-11-10T14:32:34.154Z,13.40
2022-11-10T14:35:01.828Z,13.30
2022-11-10T14:37:29.917Z,13.20
2022-11-10T14:39:59.328Z,13.10
2022-11-10T14:42:31.257Z,13.10
2022-11-10T14:45:08.495Z,13.00
2022-11-10T14:47:37.578Z,13.00
2022-11-10T14:50:17.892Z,12.90
2022-11-10T14:52:48.317Z,12.90
2022-11-10T14:55:22.962Z,12.90
2022-11-10T14:58:11.955Z,12.80
2022-11-10T15:00:41.827Z,12.80
2022-11-10T15:03:15.205Z,12.70
2022-11-10T15:05:42.588Z,12.60
2022-11-10T15:08:10.988Z,12.60
2022-11-10T15:10:43.517Z,12.50
2022-11-10T15:15:49.791Z,12.40
2022-11-10T15:18:29.295Z,12.20
2022-11-10T15:21:03.284Z,12.10
2022-11-10T15:23:33.980Z,12.00
2022-11-10T15:26:03.287Z,11.90
2022-11-10T15:28:34.016Z,11.80
2022-11-10T15:31:05.670Z,11.60
2022-11-10T15:33:36.623Z,11.50
2022-11-10T15:36:32.159Z,11.40
2022-11-10T15:39:22.248Z,11.30
2022-11-10T15:41:56.675Z,11.20
2022-11-10T15:44:28.117Z,11.10
2022-11-10T15:46:56.954Z,11.00
2022-11-10T15:49:39.910Z,10.90
2022-11-10T15:52:15.760Z,10.80
2022-11-10T15:54:44.325Z,10.70
2022-11-10T15:57:17.300Z,10.60
2022-11-10T15:59:45.100Z,10.60
2022-11-10T16:02:22.313Z,10.50
2022-11-10T16:04:56.992Z,10.40
2022-11-10T16:07:26.944Z,10.30
2022-11-10T16:09:54.141Z,10.20
2022-11-10T16:12:22.988Z,10.20
2022-11-10T16:14:52.772Z,10.10
2022-11-10T16:17:20.304Z,10.10
2022-11-10T16:19:48.289Z,10.00
2022-11-10T16:22:15.545Z,10.00
2022-11-10T16:24:42.815Z,9.90
2022-11-10T16:27:14.051Z,9.80
2022-11-10T16:29:43.049Z,9.80
2022-11-10T16:32:11.720Z,9.70
2022-11-10T16:34:38.984Z,9.60
2022-11-10T16:37:06.399Z,9.70
2022-11-10T16:39:33.664Z,9.80
2022-11-10T16:42:00.899Z,9.90
2022-11-10T16:44:28.050Z,9.90
2022-11-10T16:46:57.289Z,9.80
2022-11-10T16:49:33.012Z,9.80
2022-11-10T16:52:08.260Z,9.60
2022-11-10T16:54:35.621Z,9.60
2022-11-10T16:57:06.578Z,9.70
2022-11-10T16:59:34.146Z,9.70
